Pagina principale
METAR-TAF:

METAR-TAF

Aeroporti :

Forlì, Italia

Aeroporto di Forlì

latitudine: 44-12N, longitudine: 012-04E, altezza: 27 m

Osservazione

Il bollettino è stato emesso 49 minuti fa, alle 12:50 UTC
Vento 5 kt da ovest
Temperature 13°C
Umidità 88%
Pressione 1011 hPa
Visibilità: 8000 m
Nubi sparse ad un'altezza di 500 ft
Nuvoloso ad un'altezza di 1000 ft

METAR: LIPK 191250Z 27005KT 8000 SCT005 BKN010 13/11 Q1011

Ora: 15:39 (13:39 UTC)


TAF: mancante

Osservazioni e previsioni meteorologiche di più di 4000 aeroporti (messaggi METAR e TAF).

Le stazioni disponibili sono rappresentate dai dischi gialli e rossi sulla carta.

Puntare il mouse per vedere il nome della stazione.

Clicca sopra per visualizzare le osservazioni e previsioni meteorologiche.

Per cambiare la mappa : fare clic sui pulsanti verdi con una croce nera per ingrandire, il pulsante verde con un trattino per diminuire, o sulla freccia verde per le mappe adiacenti.


METAR-TAF: